createdAt,value
2022-09-16T00:02:24.993Z,98398.00
2022-09-16T00:04:51.818Z,98435.59
2022-09-16T00:07:20.352Z,98423.78
2022-09-16T00:09:47.092Z,98439.47
2022-09-16T00:12:13.825Z,98433.88
2022-09-16T00:14:40.676Z,98447.84
2022-09-16T00:17:07.387Z,98437.63
2022-09-16T00:19:34.274Z,98388.34
2022-09-16T00:22:01.027Z,98435.41
2022-09-16T00:24:28.497Z,98445.13
2022-09-16T00:26:55.523Z,98434.16
2022-09-16T00:29:22.237Z,98390.34
2022-09-16T00:31:49.042Z,98440.13
2022-09-16T00:34:16.046Z,98372.13
2022-09-16T00:36:43.095Z,98392.41
2022-09-16T00:39:10.070Z,98375.81
2022-09-16T00:41:40.860Z,98370.16
2022-09-16T00:46:45.022Z,98429.34
2022-09-16T00:49:25.919Z,98382.41
2022-09-16T00:51:57.704Z,98458.09
2022-09-16T00:54:25.636Z,98412.50
2022-09-16T00:56:56.370Z,98402.66
2022-09-16T00:59:34.390Z,98370.44
2022-09-16T01:02:10.983Z,98397.44
2022-09-16T01:04:45.557Z,98384.75
2022-09-16T01:07:12.813Z,98382.25
2022-09-16T01:09:40.294Z,98380.81
2022-09-16T01:17:37.954Z,98457.28
2022-09-16T01:20:10.772Z,98456.19
2022-09-16T01:23:13.133Z,98444.34
2022-09-16T01:26:02.112Z,98456.38
2022-09-16T01:29:24.027Z,98434.41
2022-09-16T01:32:08.870Z,98445.44
2022-09-16T01:35:08.586Z,98434.38
2022-09-16T01:37:51.342Z,98433.28
2022-09-16T01:40:56.554Z,98442.25
2022-09-16T01:43:32.263Z,98448.94
2022-09-16T01:46:24.638Z,98454.41
2022-09-16T01:49:14.208Z,98430.84
2022-09-16T01:51:48.013Z,98439.97
2022-09-16T01:54:34.143Z,98446.81
2022-09-16T01:57:26.080Z,98449.47
2022-09-16T02:00:01.935Z,98438.56
2022-09-16T02:02:56.600Z,98423.66
2022-09-16T02:05:29.372Z,98433.25
2022-09-16T02:08:02.537Z,98425.63
2022-09-16T02:10:43.880Z,98410.53
2022-09-16T02:13:43.451Z,98401.81
2022-09-16T02:16:34.563Z,98401.31
2022-09-16T02:19:10.833Z,98408.25
2022-09-16T02:21:47.705Z,98414.41
2022-09-16T02:24:19.566Z,98417.06
2022-09-16T02:26:54.422Z,98376.84
2022-09-16T02:29:27.110Z,98381.03
2022-09-16T02:32:00.274Z,98401.97
2022-09-16T02:34:32.645Z,98405.81
2022-09-16T02:37:04.597Z,98385.78
2022-09-16T02:39:33.979Z,98409.88
2022-09-16T02:42:01.569Z,98399.44
2022-09-16T02:44:28.405Z,98402.53
2022-09-16T02:47:04.568Z,98394.81
2022-09-16T02:49:41.016Z,98394.44
2022-09-16T02:52:18.242Z,98390.25
2022-09-16T02:55:39.067Z,98359.44
2022-09-16T02:58:07.566Z,98381.13
2022-09-16T03:00:41.381Z,98381.22
2022-09-16T03:03:09.192Z,98375.25
2022-09-16T03:05:35.998Z,98369.03
2022-09-16T03:08:04.275Z,98348.78
2022-09-16T03:11:00.486Z,98382.97
2022-09-16T03:13:48.062Z,98362.13
2022-09-16T03:16:22.604Z,98364.72
2022-09-16T03:19:01.391Z,98374.66
2022-09-16T03:22:03.194Z,98370.13
2022-09-16T03:24:39.113Z,98375.97
2022-09-16T03:27:16.886Z,98370.88
2022-09-16T03:29:50.833Z,98371.38
2022-09-16T03:32:32.264Z,98332.44
2022-09-16T03:35:18.724Z,98364.88
2022-09-16T03:37:47.100Z,98370.34
2022-09-16T03:40:19.361Z,98332.78
2022-09-16T03:42:46.485Z,98331.84
2022-09-16T03:45:19.401Z,98333.84
2022-09-16T03:47:48.601Z,98351.56
2022-09-16T03:50:16.355Z,98332.50
2022-09-16T03:52:43.135Z,98350.09
2022-09-16T03:55:23.303Z,98347.56
2022-09-16T03:57:50.064Z,98346.94
2022-09-16T04:00:16.905Z,98342.28
2022-09-16T04:02:43.829Z,98329.16
2022-09-16T04:05:10.683Z,98375.28
2022-09-16T04:07:37.533Z,98362.16
2022-09-16T04:10:05.910Z,98359.47
2022-09-16T04:12:33.094Z,98373.50
2022-09-16T04:15:01.040Z,98364.56
2022-09-16T04:17:28.007Z,98339.59
2022-09-16T04:19:54.762Z,98366.09
2022-09-16T04:22:21.587Z,98375.44
2022-09-16T04:24:48.443Z,98342.09
2022-09-16T04:27:15.237Z,98338.69
2022-09-16T04:29:42.482Z,98344.44
2022-09-16T04:32:09.206Z,98355.75
2022-09-16T04:34:55.756Z,98374.22
2022-09-16T04:37:22.591Z,98356.50
2022-09-16T04:39:49.492Z,98332.47
2022-09-16T04:42:16.314Z,98370.03
2022-09-16T04:44:43.333Z,98362.63
2022-09-16T04:47:10.107Z,98329.00
2022-09-16T04:49:46.125Z,98362.16
2022-09-16T04:52:12.903Z,98338.56
2022-09-16T04:55:02.485Z,98336.41
2022-09-16T04:57:32.950Z,98291.28
2022-09-16T04:59:59.678Z,98314.78
2022-09-16T05:02:29.873Z,98291.47
2022-09-16T05:04:56.696Z,98334.19
2022-09-16T05:07:23.549Z,98339.59
2022-09-16T05:09:50.285Z,98320.00
2022-09-16T05:12:17.119Z,98318.69
2022-09-16T05:14:43.919Z,98331.22
2022-09-16T05:17:11.113Z,98345.91
2022-09-16T05:19:37.946Z,98354.44
2022-09-16T05:22:07.323Z,98351.09
2022-09-16T05:24:36.764Z,98364.69
2022-09-16T05:27:03.802Z,98326.66
2022-09-16T05:29:30.535Z,98353.00
2022-09-16T05:31:58.206Z,98367.06
2022-09-16T05:34:28.801Z,98363.25
2022-09-16T05:36:56.791Z,98363.13
2022-09-16T05:39:25.252Z,98326.13
2022-09-16T05:41:57.944Z,98310.31
2022-09-16T05:44:25.837Z,98352.19
2022-09-16T05:46:53.482Z,98345.00
2022-09-16T05:49:23.944Z,98340.22
2022-09-16T05:51:51.657Z,98310.25
2022-09-16T05:54:19.498Z,98312.22
2022-09-16T05:56:47.525Z,98343.56
2022-09-16T05:59:15.391Z,98347.22
2022-09-16T06:01:42.482Z,98343.63
2022-09-16T06:04:11.637Z,98312.78
2022-09-16T06:06:40.715Z,98338.94
2022-09-16T06:09:13.426Z,98351.06
2022-09-16T06:11:42.616Z,98356.69
2022-09-16T06:14:10.372Z,98362.38
2022-09-16T06:16:37.908Z,98354.53
2022-09-16T06:19:10.613Z,98353.41
2022-09-16T06:21:38.727Z,98330.81
2022-09-16T06:24:09.668Z,98332.16
2022-09-16T06:26:39.405Z,98320.41
2022-09-16T06:29:07.292Z,98344.53
2022-09-16T06:31:35.542Z,98356.69
2022-09-16T06:34:03.300Z,98267.75
2022-09-16T06:36:33.677Z,98350.50
2022-09-16T06:39:01.608Z,98321.81
2022-09-16T06:41:28.683Z,98309.72
2022-09-16T06:43:55.682Z,98333.78
2022-09-16T06:46:25.169Z,98324.16
2022-09-16T06:48:58.645Z,98354.50
2022-09-16T06:51:29.790Z,98357.03
2022-09-16T06:54:05.458Z,98345.69
2022-09-16T06:56:34.242Z,98307.47
2022-09-16T06:59:00.983Z,98367.06
2022-09-16T07:01:30.823Z,98368.69
2022-09-16T07:03:58.722Z,98372.03
2022-09-16T07:09:17.258Z,98362.59
2022-09-16T07:11:44.294Z,98369.28
2022-09-16T07:14:11.190Z,98362.91
2022-09-16T07:16:37.981Z,98357.31
2022-09-16T07:19:05.495Z,98358.09
2022-09-16T07:21:32.786Z,98363.88
2022-09-16T07:24:01.570Z,98368.09
2022-09-16T07:26:31.480Z,98364.44
2022-09-16T07:29:04.090Z,98344.66
2022-09-16T07:31:33.737Z,98371.59
2022-09-16T07:34:04.914Z,98368.47
2022-09-16T07:36:43.887Z,98357.47
2022-09-16T07:39:12.740Z,98358.72
2022-09-16T07:41:42.648Z,98364.94
2022-09-16T07:44:12.845Z,98367.97
2022-09-16T07:46:40.544Z,98374.28
2022-09-16T07:49:09.462Z,98372.47
2022-09-16T07:51:36.672Z,98376.56
2022-09-16T07:54:06.626Z,98346.75
2022-09-16T07:56:36.495Z,98326.16
2022-09-16T07:59:05.902Z,98314.19
2022-09-16T08:01:32.865Z,98372.03
2022-09-16T08:04:01.008Z,98328.19
2022-09-16T08:06:30.183Z,98342.88
2022-09-16T08:09:10.075Z,98369.91
2022-09-16T08:11:46.567Z,98380.44
2022-09-16T08:14:13.341Z,98385.16
2022-09-16T08:16:40.100Z,98317.69
2022-09-16T08:19:06.998Z,98356.19
2022-09-16T08:21:33.817Z,98399.22
2022-09-16T08:24:00.681Z,98387.16
2022-09-16T08:26:27.694Z,98386.06
2022-09-16T08:29:10.520Z,98399.63
2022-09-16T08:31:38.745Z,98393.00
2022-09-16T08:34:06.428Z,98399.44
2022-09-16T08:36:34.006Z,98397.19
2022-09-16T08:39:01.137Z,98402.28
2022-09-16T08:41:46.625Z,98396.00
2022-09-16T08:44:13.432Z,98388.72
2022-09-16T08:46:59.953Z,98393.94
2022-09-16T08:49:28.261Z,98394.59
2022-09-16T08:51:57.973Z,98384.78
2022-09-16T08:54:30.429Z,98397.72
2022-09-16T08:57:01.141Z,98386.25
2022-09-16T08:59:34.258Z,98394.19
2022-09-16T09:02:27.903Z,98377.50
2022-09-16T09:04:55.135Z,98388.34
2022-09-16T09:07:31.756Z,98381.69
2022-09-16T09:10:01.319Z,98386.00
2022-09-16T09:12:52.505Z,98381.44
2022-09-16T09:15:44.158Z,98359.56
2022-09-16T09:18:22.192Z,98386.06
2022-09-16T09:21:08.842Z,98381.25
2022-09-16T09:23:41.216Z,98379.59
2022-09-16T09:26:24.112Z,98387.16
2022-09-16T09:29:10.657Z,98385.69
2022-09-16T09:32:28.822Z,98379.00
2022-09-16T09:35:02.729Z,98366.44
2022-09-16T09:38:11.031Z,98365.84
2022-09-16T09:40:44.185Z,98361.91
2022-09-16T09:43:31.631Z,98372.75
2022-09-16T09:46:06.454Z,98373.78
2022-09-16T09:48:41.885Z,98375.66
2022-09-16T09:51:21.162Z,98382.13
2022-09-16T09:53:54.026Z,98364.56
2022-09-16T09:56:26.491Z,98372.22
2022-09-16T09:59:02.297Z,98373.06
2022-09-16T10:01:29.136Z,98328.72
2022-09-16T10:03:58.020Z,98329.13
2022-09-16T10:06:34.532Z,98366.38
2022-09-16T10:09:01.612Z,98367.00
2022-09-16T10:11:33.711Z,98360.72
2022-09-16T10:14:02.710Z,98369.75
2022-09-16T10:16:37.656Z,98361.16
2022-09-16T10:19:24.321Z,98367.88
2022-09-16T10:22:19.070Z,98354.47
2022-09-16T10:24:55.178Z,98346.09
2022-09-16T10:27:23.561Z,98348.72
2022-09-16T10:30:24.311Z,98340.94
2022-09-16T10:33:02.629Z,98306.19
2022-09-16T10:35:32.223Z,98343.94
2022-09-16T10:38:24.642Z,98312.19
2022-09-16T10:41:03.255Z,98341.13
2022-09-16T10:43:31.588Z,98323.19
2022-09-16T10:45:58.706Z,98326.31
2022-09-16T10:48:30.736Z,98339.22
2022-09-16T10:51:02.690Z,98334.19
2022-09-16T10:53:44.060Z,98341.09
2022-09-16T10:56:20.133Z,98332.72
2022-09-16T10:58:46.852Z,98324.03
2022-09-16T11:01:14.746Z,98334.25
2022-09-16T11:03:45.403Z,98332.53
2022-09-16T11:06:41.912Z,98334.75
2022-09-16T11:09:08.612Z,98327.03
2022-09-16T11:11:57.528Z,98313.31
2022-09-16T11:14:27.342Z,98315.84
2022-09-16T11:17:11.526Z,98299.19
2022-09-16T11:20:06.374Z,98304.13
2022-09-16T11:22:54.381Z,98294.97
2022-09-16T11:25:27.113Z,98296.91
2022-09-16T11:28:31.141Z,98289.22
2022-09-16T11:31:03.832Z,98301.56
2022-09-16T11:33:36.466Z,98297.94
2022-09-16T11:36:24.661Z,98294.72
2022-09-16T11:39:17.179Z,98291.03
2022-09-16T11:42:13.891Z,98279.88
2022-09-16T11:45:01.074Z,98291.75
2022-09-16T11:47:40.549Z,98287.81
2022-09-16T11:50:19.894Z,98279.75
2022-09-16T11:53:12.195Z,98274.53
2022-09-16T11:56:03.790Z,98270.50
2022-09-16T11:58:55.240Z,98270.66
2022-09-16T12:01:35.730Z,98262.66
2022-09-16T12:04:24.961Z,98261.50
2022-09-16T12:07:04.024Z,98273.91
2022-09-16T12:09:42.350Z,98262.78
2022-09-16T12:12:16.615Z,98233.34
2022-09-16T12:14:49.159Z,98257.75
2022-09-16T12:17:21.849Z,98253.78
2022-09-16T12:20:20.817Z,98256.03
2022-09-16T12:22:54.789Z,98269.06
2022-09-16T12:25:45.449Z,98256.31
2022-09-16T12:28:20.553Z,98260.06
2022-09-16T12:31:01.777Z,98246.03
2022-09-16T12:33:35.190Z,98258.22
2022-09-16T12:36:10.496Z,98252.69
2022-09-16T12:38:37.728Z,98221.59
2022-09-16T12:44:23.520Z,98251.28
2022-09-16T12:47:13.902Z,98241.16
2022-09-16T12:50:02.528Z,98244.06
2022-09-16T12:52:35.283Z,98246.06
2022-09-16T12:55:08.814Z,98233.09
2022-09-16T12:57:53.034Z,98243.88
2022-09-16T13:00:26.397Z,98225.13
2022-09-16T13:02:58.084Z,98224.91
2022-09-16T13:05:34.156Z,98223.38
2022-09-16T13:08:07.287Z,98214.03
2022-09-16T13:11:11.555Z,98220.78
2022-09-16T13:13:36.660Z,98208.16
2022-09-16T13:16:07.148Z,98215.59
2022-09-16T13:18:46.060Z,98205.25
2022-09-16T13:21:16.994Z,98163.84
2022-09-16T13:23:47.345Z,98196.63
2022-09-16T13:26:15.224Z,98183.78
2022-09-16T13:28:44.991Z,98198.59
2022-09-16T13:31:14.421Z,98195.78
2022-09-16T13:33:43.889Z,98156.16
2022-09-16T13:36:30.696Z,98181.78
2022-09-16T13:39:05.509Z,98177.34
2022-09-16T13:41:41.764Z,98179.03
2022-09-16T13:44:37.597Z,98181.06
2022-09-16T13:47:16.192Z,98181.38
2022-09-16T13:49:56.483Z,98170.63
2022-09-16T13:52:36.438Z,98182.38
2022-09-16T13:55:10.641Z,98164.53
2022-09-16T13:58:06.027Z,98170.81
2022-09-16T14:01:08.091Z,98182.81
2022-09-16T14:03:59.627Z,98183.78
2022-09-16T14:07:00.181Z,98177.94
2022-09-16T14:09:54.656Z,98165.00
2022-09-16T14:12:49.437Z,98160.66
2022-09-16T14:15:17.170Z,98115.19
2022-09-16T14:17:51.307Z,98124.31
2022-09-16T14:20:21.793Z,98151.88
2022-09-16T14:22:48.553Z,98155.91
2022-09-16T14:25:32.852Z,98138.59
2022-09-16T14:28:21.184Z,98151.38
2022-09-16T14:31:00.611Z,98150.34
2022-09-16T14:33:34.996Z,98150.69
2022-09-16T14:36:11.194Z,98132.44
2022-09-16T14:39:00.421Z,98150.44
2022-09-16T14:41:36.688Z,98157.56
2022-09-16T14:44:12.969Z,98144.75
2022-09-16T14:46:42.759Z,98152.53
2022-09-16T14:49:14.640Z,98146.06
2022-09-16T14:51:49.272Z,98155.66
2022-09-16T14:54:19.005Z,98142.75
2022-09-16T14:57:08.241Z,98152.56
2022-09-16T14:59:40.119Z,98160.78
2022-09-16T15:02:22.069Z,98158.91
2022-09-16T15:04:58.640Z,98146.75
2022-09-16T15:07:30.261Z,98159.78
2022-09-16T15:10:00.881Z,98151.59
2022-09-16T15:12:34.778Z,98134.84
2022-09-16T15:15:17.636Z,98134.25
2022-09-16T15:17:44.507Z,98149.59
2022-09-16T15:20:22.932Z,98157.06
2022-09-16T15:22:50.010Z,98129.63
2022-09-16T15:25:30.301Z,98153.97
2022-09-16T15:28:19.489Z,98150.94
2022-09-16T15:30:48.729Z,98129.56
2022-09-16T15:33:29.928Z,98154.09
2022-09-16T15:36:01.914Z,98120.97
2022-09-16T15:38:29.801Z,98145.66
2022-09-16T15:41:12.031Z,98148.28
2022-09-16T15:43:43.030Z,98152.00
2022-09-16T15:46:22.035Z,98157.13
2022-09-16T15:48:53.209Z,98157.19
2022-09-16T15:51:29.250Z,98172.81
2022-09-16T15:54:03.215Z,98184.56
2022-09-16T15:56:53.288Z,98143.63
2022-09-16T15:59:40.071Z,98176.47
2022-09-16T16:02:25.171Z,98192.63
2022-09-16T16:04:52.653Z,98199.84
2022-09-16T16:07:40.172Z,98193.94
2022-09-16T16:10:26.962Z,98198.25
2022-09-16T16:12:54.903Z,98175.66
2022-09-16T16:15:25.838Z,98202.56
2022-09-16T16:17:54.854Z,98198.22
2022-09-16T16:20:21.923Z,98201.47
2022-09-16T16:22:49.176Z,98201.44
2022-09-16T16:25:17.028Z,98202.28
2022-09-16T16:27:44.052Z,98221.19
2022-09-16T16:30:11.373Z,98224.81
2022-09-16T16:32:39.312Z,98234.59
2022-09-16T16:35:06.786Z,98244.44
2022-09-16T16:37:45.858Z,98240.94
2022-09-16T16:40:14.312Z,98256.16
2022-09-16T16:42:43.422Z,98264.31
2022-09-16T16:45:13.513Z,98258.03
2022-09-16T16:47:40.321Z,98288.69
2022-09-16T16:50:07.283Z,98276.38
2022-09-16T16:52:34.181Z,98277.84
2022-09-16T16:55:01.174Z,98290.06
2022-09-16T16:57:27.953Z,98278.00
2022-09-16T16:59:54.942Z,98275.47
2022-09-16T17:02:21.765Z,98272.09
2022-09-16T17:04:49.065Z,98283.53
2022-09-16T17:07:26.585Z,98287.69
2022-09-16T17:09:54.653Z,98252.38
2022-09-16T17:12:21.474Z,98266.28
2022-09-16T17:14:48.203Z,98241.47
2022-09-16T17:17:15.179Z,98274.78
2022-09-16T17:19:42.033Z,98272.28
2022-09-16T17:22:08.744Z,98268.03
2022-09-16T17:24:35.544Z,98256.94
2022-09-16T17:27:02.354Z,98269.41
2022-09-16T17:29:29.267Z,98281.75
2022-09-16T17:32:00.860Z,98286.72
2022-09-16T17:34:27.692Z,98317.09
2022-09-16T17:36:54.864Z,98323.59
2022-09-16T17:39:22.853Z,98318.59
2022-09-16T17:41:51.143Z,98331.06
2022-09-16T17:44:19.547Z,98342.47
2022-09-16T17:46:47.221Z,98330.19
2022-09-16T17:49:20.294Z,98356.19
2022-09-16T17:51:47.694Z,98354.97
2022-09-16T17:54:14.684Z,98361.47
2022-09-16T17:56:43.194Z,98382.28
2022-09-16T17:59:11.373Z,98371.53
2022-09-16T18:01:38.711Z,98361.75
2022-09-16T18:04:31.277Z,98384.78
2022-09-16T18:06:58.066Z,98371.16
2022-09-16T18:09:24.854Z,98378.03
2022-09-16T18:11:51.900Z,98380.53
2022-09-16T18:14:23.119Z,98378.72
2022-09-16T18:16:50.354Z,98382.06
2022-09-16T18:19:17.191Z,98384.00
2022-09-16T18:24:27.796Z,98416.31
2022-09-16T18:26:58.862Z,98358.59
2022-09-16T18:29:25.841Z,98373.88
2022-09-16T18:31:54.452Z,98422.22
2022-09-16T18:34:22.661Z,98417.00
2022-09-16T18:36:49.389Z,98438.97
2022-09-16T18:39:17.305Z,98444.53
2022-09-16T18:41:45.924Z,98436.59
2022-09-16T18:44:21.055Z,98432.88
2022-09-16T18:46:47.838Z,98424.78
2022-09-16T18:49:16.385Z,98429.19
2022-09-16T18:51:51.667Z,98427.72
2022-09-16T18:54:26.007Z,98433.84
2022-09-16T18:56:56.000Z,98438.69
2022-09-16T18:59:26.900Z,98440.00
2022-09-16T19:01:57.118Z,98423.91
2022-09-16T19:04:26.920Z,98460.00
2022-09-16T19:06:57.075Z,98465.13
2022-09-16T19:09:24.579Z,98459.38
2022-09-16T19:11:53.102Z,98464.25
2022-09-16T19:14:24.345Z,98459.59
2022-09-16T19:16:51.505Z,98459.06
2022-09-16T19:19:19.646Z,98462.25
2022-09-16T19:21:48.347Z,98440.19
2022-09-16T19:24:21.374Z,98471.06
2022-09-16T19:26:49.554Z,98465.78
2022-09-16T19:29:17.291Z,98456.84
2022-09-16T19:31:46.640Z,98460.66
2022-09-16T19:34:14.880Z,98455.53
2022-09-16T19:36:42.788Z,98462.78
2022-09-16T19:39:12.104Z,98476.75
2022-09-16T19:41:40.223Z,98457.19
2022-09-16T19:44:11.371Z,98468.09
2022-09-16T19:46:39.594Z,98451.69
2022-09-16T19:49:08.414Z,98472.72
2022-09-16T19:51:35.515Z,98465.00
2022-09-16T19:54:03.145Z,98452.94
2022-09-16T19:56:33.391Z,98453.59
2022-09-16T19:59:01.699Z,98451.31
2022-09-16T20:01:34.555Z,98454.94
2022-09-16T20:04:04.804Z,98456.78
2022-09-16T20:06:40.842Z,98458.44
2022-09-16T20:09:12.203Z,98454.53
2022-09-16T20:11:42.517Z,98454.69
2022-09-16T20:14:14.561Z,98457.63
2022-09-16T20:16:41.591Z,98450.38
2022-09-16T20:19:11.835Z,98463.66
2022-09-16T20:21:39.109Z,98464.34
2022-09-16T20:24:08.554Z,98456.91
2022-09-16T20:26:36.205Z,98443.44
2022-09-16T20:29:03.521Z,98457.94
2022-09-16T20:31:33.354Z,98449.16
2022-09-16T20:34:00.412Z,98452.03
2022-09-16T20:36:30.722Z,98461.06
2022-09-16T20:39:00.308Z,98470.28
2022-09-16T20:41:29.582Z,98448.44
2022-09-16T20:43:57.091Z,98467.59
2022-09-16T20:46:30.034Z,98468.88
2022-09-16T20:48:59.847Z,98470.88
2022-09-16T20:51:29.346Z,98468.53
2022-09-16T20:54:06.295Z,98477.69
2022-09-16T20:56:38.075Z,98475.34
2022-09-16T20:59:08.157Z,98476.25
2022-09-16T21:01:37.142Z,98472.38
2022-09-16T21:04:07.455Z,98459.09
2022-09-16T21:06:35.921Z,98461.38
2022-09-16T21:09:05.927Z,98436.63
2022-09-16T21:11:33.357Z,98465.88
2022-09-16T21:14:08.801Z,98435.06
2022-09-16T21:16:37.763Z,98454.13
2022-09-16T21:19:09.337Z,98433.75
2022-09-16T21:21:38.821Z,98427.50
2022-09-16T21:24:07.326Z,98467.91
2022-09-16T21:26:35.902Z,98476.75
2022-09-16T21:29:05.463Z,98479.59
2022-09-16T21:31:34.202Z,98474.56
2022-09-16T21:34:03.252Z,98479.22
2022-09-16T21:36:30.722Z,98485.94
2022-09-16T21:38:57.707Z,98488.63
2022-09-16T21:41:24.952Z,98477.13
2022-09-16T21:43:55.606Z,98492.63
2022-09-16T21:46:33.602Z,98487.06
2022-09-16T21:49:02.300Z,98492.50
2022-09-16T21:51:37.364Z,98467.03
2022-09-16T21:54:08.084Z,98475.03
2022-09-16T21:56:38.371Z,98480.47
2022-09-16T21:59:06.281Z,98473.63
2022-09-16T22:01:34.033Z,98492.97
2022-09-16T22:04:03.762Z,98497.69
2022-09-16T22:06:31.115Z,98486.72
2022-09-16T22:09:01.061Z,98493.34
2022-09-16T22:11:30.333Z,98468.34
2022-09-16T22:14:00.671Z,98477.63
2022-09-16T22:16:29.990Z,98460.75
2022-09-16T22:19:12.452Z,98479.66
2022-09-16T22:21:42.185Z,98477.09
2022-09-16T22:24:09.372Z,98483.47
2022-09-16T22:26:36.701Z,98470.56
2022-09-16T22:29:03.991Z,98476.78
2022-09-16T22:31:33.077Z,98470.78
2022-09-16T22:34:01.829Z,98471.47
2022-09-16T22:36:30.885Z,98455.41
2022-09-16T22:39:04.736Z,98471.16
2022-09-16T22:41:32.302Z,98428.72
2022-09-16T22:43:59.010Z,98462.97
2022-09-16T22:46:28.293Z,98455.09
2022-09-16T22:48:56.689Z,98468.88
2022-09-16T22:51:24.083Z,98450.06
2022-09-16T22:53:50.912Z,98453.91
2022-09-16T22:56:21.390Z,98446.53
2022-09-16T22:58:53.473Z,98456.97
2022-09-16T23:03:36.891Z,98439.75
2022-09-16T23:06:06.561Z,98432.56
2022-09-16T23:08:36.363Z,98443.88
2022-09-16T23:11:05.892Z,98441.44
2022-09-16T23:13:33.662Z,98442.31
2022-09-16T23:16:02.578Z,98425.19
2022-09-16T23:18:34.868Z,98432.91
2022-09-16T23:21:06.563Z,98435.09
2022-09-16T23:23:37.403Z,98418.25
2022-09-16T23:26:08.299Z,98426.78
2022-09-16T23:28:34.972Z,98413.38
2022-09-16T23:31:11.022Z,98399.38
2022-09-16T23:33:38.290Z,98419.59
2022-09-16T23:36:05.893Z,98407.50
2022-09-16T23:38:34.872Z,98407.28
2022-09-16T23:41:06.303Z,98395.31
2022-09-16T23:43:33.097Z,98392.19
2022-09-16T23:46:03.312Z,98396.41
2022-09-16T23:48:30.603Z,98399.66
2022-09-16T23:50:57.761Z,98400.16
2022-09-16T23:53:24.496Z,98383.53
2022-09-16T23:55:51.385Z,98371.53
2022-09-16T23:58:18.643Z,98387.97
